sensor_id;sensor_type;location;lat;lon;timestamp;P1;durP1;ratioP1;P2;durP2;ratioP2
31210;SDS011;17836;50.948;3.946;2022-08-19T00:01:02;41.73;;;25.93;;
31210;SDS011;17836;50.948;3.946;2022-08-19T00:03:28;38.50;;;25.90;;
31210;SDS011;17836;50.948;3.946;2022-08-19T00:05:53;42.53;;;26.27;;
31210;SDS011;17836;50.948;3.946;2022-08-19T00:08:18;36.73;;;24.53;;
31210;SDS011;17836;50.948;3.946;2022-08-19T00:10:44;42.47;;;25.35;;
31210;SDS011;17836;50.948;3.946;2022-08-19T00:13:10;37.25;;;24.52;;
31210;SDS011;17836;50.948;3.946;2022-08-19T00:15:36;40.20;;;23.60;;
31210;SDS011;17836;50.948;3.946;2022-08-19T00:18:02;44.50;;;26.73;;
31210;SDS011;17836;50.948;3.946;2022-08-19T00:20:27;39.00;;;23.80;;
31210;SDS011;17836;50.948;3.946;2022-08-19T00:22:53;43.20;;;26.30;;
31210;SDS011;17836;50.948;3.946;2022-08-19T00:25:19;43.28;;;25.48;;
31210;SDS011;17836;50.948;3.946;2022-08-19T00:27:44;47.55;;;27.50;;
31210;SDS011;17836;50.948;3.946;2022-08-19T00:30:10;48.47;;;27.92;;
31210;SDS011;17836;50.948;3.946;2022-08-19T00:32:36;43.15;;;27.15;;
31210;SDS011;17836;50.948;3.946;2022-08-19T00:35:02;45.97;;;27.50;;
31210;SDS011;17836;50.948;3.946;2022-08-19T00:37:27;39.63;;;25.45;;
31210;SDS011;17836;50.948;3.946;2022-08-19T00:39:53;41.67;;;26.23;;
31210;SDS011;17836;50.948;3.946;2022-08-19T00:42:19;40.88;;;26.45;;
31210;SDS011;17836;50.948;3.946;2022-08-19T00:44:45;42.90;;;27.10;;
31210;SDS011;17836;50.948;3.946;2022-08-19T00:47:11;42.22;;;26.83;;
31210;SDS011;17836;50.948;3.946;2022-08-19T00:49:37;41.63;;;25.88;;
31210;SDS011;17836;50.948;3.946;2022-08-19T00:52:09;38.15;;;25.33;;
31210;SDS011;17836;50.948;3.946;2022-08-19T00:54:37;37.40;;;24.15;;
31210;SDS011;17836;50.948;3.946;2022-08-19T00:57:04;38.17;;;23.95;;
31210;SDS011;17836;50.948;3.946;2022-08-19T00:59:31;41.13;;;24.20;;
31210;SDS011;17836;50.948;3.946;2022-08-19T01:01:58;36.13;;;23.55;;
31210;SDS011;17836;50.948;3.946;2022-08-19T01:04:24;36.70;;;22.93;;
31210;SDS011;17836;50.948;3.946;2022-08-19T01:06:49;34.83;;;22.70;;
31210;SDS011;17836;50.948;3.946;2022-08-19T01:09:14;32.05;;;22.42;;
31210;SDS011;17836;50.948;3.946;2022-08-19T01:11:40;36.20;;;22.03;;
31210;SDS011;17836;50.948;3.946;2022-08-19T01:14:07;33.20;;;21.02;;
31210;SDS011;17836;50.948;3.946;2022-08-19T01:16:33;29.23;;;19.52;;
31210;SDS011;17836;50.948;3.946;2022-08-19T01:18:59;31.08;;;21.67;;
31210;SDS011;17836;50.948;3.946;2022-08-19T01:23:51;28.30;;;17.77;;
31210;SDS011;17836;50.948;3.946;2022-08-19T01:26:18;28.58;;;18.45;;
31210;SDS011;17836;50.948;3.946;2022-08-19T01:28:44;25.15;;;16.92;;
31210;SDS011;17836;50.948;3.946;2022-08-19T01:31:15;23.77;;;16.55;;
31210;SDS011;17836;50.948;3.946;2022-08-19T01:33:41;20.48;;;14.75;;
31210;SDS011;17836;50.948;3.946;2022-08-19T01:36:09;20.88;;;15.02;;
31210;SDS011;17836;50.948;3.946;2022-08-19T01:38:36;20.55;;;13.88;;
31210;SDS011;17836;50.948;3.946;2022-08-19T01:41:02;20.23;;;13.63;;
31210;SDS011;17836;50.948;3.946;2022-08-19T01:43:27;19.00;;;13.97;;
31210;SDS011;17836;50.948;3.946;2022-08-19T01:45:53;21.13;;;14.20;;
31210;SDS011;17836;50.948;3.946;2022-08-19T01:48:18;20.45;;;13.40;;
31210;SDS011;17836;50.948;3.946;2022-08-19T01:50:44;19.67;;;13.63;;
31210;SDS011;17836;50.948;3.946;2022-08-19T01:53:09;19.03;;;13.70;;
31210;SDS011;17836;50.948;3.946;2022-08-19T01:55:38;20.20;;;14.55;;
31210;SDS011;17836;50.948;3.946;2022-08-19T01:58:04;20.67;;;14.30;;
31210;SDS011;17836;50.948;3.946;2022-08-19T02:00:30;20.60;;;14.32;;
31210;SDS011;17836;50.948;3.946;2022-08-19T02:02:56;19.25;;;13.77;;
31210;SDS011;17836;50.948;3.946;2022-08-19T02:05:22;20.03;;;13.73;;
31210;SDS011;17836;50.948;3.946;2022-08-19T02:07:47;21.75;;;13.45;;
31210;SDS011;17836;50.948;3.946;2022-08-19T02:10:14;20.15;;;13.43;;
31210;SDS011;17836;50.948;3.946;2022-08-19T02:12:40;20.52;;;13.25;;
31210;SDS011;17836;50.948;3.946;2022-08-19T02:15:06;18.00;;;12.73;;
31210;SDS011;17836;50.948;3.946;2022-08-19T02:17:32;21.13;;;13.13;;
31210;SDS011;17836;50.948;3.946;2022-08-19T02:19:57;22.75;;;13.15;;
31210;SDS011;17836;50.948;3.946;2022-08-19T02:22:23;21.25;;;12.70;;
31210;SDS011;17836;50.948;3.946;2022-08-19T02:24:50;17.95;;;12.70;;
31210;SDS011;17836;50.948;3.946;2022-08-19T02:27:16;24.35;;;13.65;;
31210;SDS011;17836;50.948;3.946;2022-08-19T02:29:42;19.02;;;13.60;;
31210;SDS011;17836;50.948;3.946;2022-08-19T02:32:07;19.70;;;12.07;;
31210;SDS011;17836;50.948;3.946;2022-08-19T02:34:33;21.35;;;13.38;;
31210;SDS011;17836;50.948;3.946;2022-08-19T02:36:59;21.15;;;13.00;;
31210;SDS011;17836;50.948;3.946;2022-08-19T02:39:24;22.08;;;13.43;;
31210;SDS011;17836;50.948;3.946;2022-08-19T02:41:51;19.25;;;13.35;;
31210;SDS011;17836;50.948;3.946;2022-08-19T02:44:17;24.20;;;13.65;;
31210;SDS011;17836;50.948;3.946;2022-08-19T02:46:42;21.40;;;13.93;;
31210;SDS011;17836;50.948;3.946;2022-08-19T02:49:09;17.42;;;12.90;;
31210;SDS011;17836;50.948;3.946;2022-08-19T02:51:36;19.42;;;12.88;;
31210;SDS011;17836;50.948;3.946;2022-08-19T02:54:02;19.33;;;11.68;;
31210;SDS011;17836;50.948;3.946;2022-08-19T02:56:28;20.70;;;12.38;;
31210;SDS011;17836;50.948;3.946;2022-08-19T02:58:55;18.48;;;13.43;;
31210;SDS011;17836;50.948;3.946;2022-08-19T03:01:25;19.58;;;12.65;;
31210;SDS011;17836;50.948;3.946;2022-08-19T03:03:51;16.03;;;12.33;;
31210;SDS011;17836;50.948;3.946;2022-08-19T03:06:16;15.70;;;11.33;;
31210;SDS011;17836;50.948;3.946;2022-08-19T03:08:43;17.75;;;11.45;;
31210;SDS011;17836;50.948;3.946;2022-08-19T03:11:12;17.65;;;11.95;;
31210;SDS011;17836;50.948;3.946;2022-08-19T03:13:38;19.98;;;11.93;;
31210;SDS011;17836;50.948;3.946;2022-08-19T03:16:04;21.03;;;11.73;;
31210;SDS011;17836;50.948;3.946;2022-08-19T03:18:29;13.30;;;10.13;;
31210;SDS011;17836;50.948;3.946;2022-08-19T03:20:54;17.13;;;10.57;;
31210;SDS011;17836;50.948;3.946;2022-08-19T03:23:20;14.18;;;9.75;;
31210;SDS011;17836;50.948;3.946;2022-08-19T03:25:47;13.20;;;10.10;;
31210;SDS011;17836;50.948;3.946;2022-08-19T03:28:13;13.32;;;9.50;;
31210;SDS011;17836;50.948;3.946;2022-08-19T03:30:39;14.80;;;10.57;;
31210;SDS011;17836;50.948;3.946;2022-08-19T03:33:05;14.25;;;10.60;;
31210;SDS011;17836;50.948;3.946;2022-08-19T03:35:31;18.15;;;11.48;;
31210;SDS011;17836;50.948;3.946;2022-08-19T03:37:58;14.40;;;9.23;;
31210;SDS011;17836;50.948;3.946;2022-08-19T03:40:23;14.55;;;11.05;;
31210;SDS011;17836;50.948;3.946;2022-08-19T03:42:49;14.50;;;10.75;;
31210;SDS011;17836;50.948;3.946;2022-08-19T03:45:14;14.02;;;10.05;;
31210;SDS011;17836;50.948;3.946;2022-08-19T03:47:40;12.15;;;9.93;;
31210;SDS011;17836;50.948;3.946;2022-08-19T03:50:06;13.20;;;9.43;;
31210;SDS011;17836;50.948;3.946;2022-08-19T03:52:32;14.90;;;9.48;;
31210;SDS011;17836;50.948;3.946;2022-08-19T03:54:57;12.73;;;9.57;;
31210;SDS011;17836;50.948;3.946;2022-08-19T03:57:22;12.20;;;8.80;;
31210;SDS011;17836;50.948;3.946;2022-08-19T03:59:48;12.85;;;8.43;;
31210;SDS011;17836;50.948;3.946;2022-08-19T04:02:13;14.90;;;9.97;;
31210;SDS011;17836;50.948;3.946;2022-08-19T04:04:39;11.43;;;8.57;;
31210;SDS011;17836;50.948;3.946;2022-08-19T04:07:05;15.23;;;9.35;;
31210;SDS011;17836;50.948;3.946;2022-08-19T04:09:30;18.73;;;9.73;;
31210;SDS011;17836;50.948;3.946;2022-08-19T04:11:56;13.88;;;8.90;;
31210;SDS011;17836;50.948;3.946;2022-08-19T04:14:23;10.38;;;8.35;;
31210;SDS011;17836;50.948;3.946;2022-08-19T04:16:50;9.32;;;7.93;;
31210;SDS011;17836;50.948;3.946;2022-08-19T04:19:16;11.23;;;8.60;;
31210;SDS011;17836;50.948;3.946;2022-08-19T04:21:43;14.57;;;9.02;;
31210;SDS011;17836;50.948;3.946;2022-08-19T04:24:08;10.88;;;7.75;;
31210;SDS011;17836;50.948;3.946;2022-08-19T04:26:34;12.50;;;8.32;;
31210;SDS011;17836;50.948;3.946;2022-08-19T04:29:01;10.68;;;8.20;;
31210;SDS011;17836;50.948;3.946;2022-08-19T04:31:28;19.83;;;9.27;;
31210;SDS011;17836;50.948;3.946;2022-08-19T04:33:58;11.02;;;8.30;;
31210;SDS011;17836;50.948;3.946;2022-08-19T04:36:29;12.75;;;8.85;;
31210;SDS011;17836;50.948;3.946;2022-08-19T04:38:55;13.77;;;8.45;;
31210;SDS011;17836;50.948;3.946;2022-08-19T04:41:22;11.80;;;8.15;;
31210;SDS011;17836;50.948;3.946;2022-08-19T04:44:06;9.85;;;6.90;;
31210;SDS011;17836;50.948;3.946;2022-08-19T04:46:31;12.32;;;8.13;;
31210;SDS011;17836;50.948;3.946;2022-08-19T04:48:58;10.82;;;8.15;;
31210;SDS011;17836;50.948;3.946;2022-08-19T04:51:24;11.75;;;7.53;;
31210;SDS011;17836;50.948;3.946;2022-08-19T04:53:49;11.73;;;7.85;;
31210;SDS011;17836;50.948;3.946;2022-08-19T04:56:15;13.35;;;8.43;;
31210;SDS011;17836;50.948;3.946;2022-08-19T04:58:42;10.35;;;8.63;;
31210;SDS011;17836;50.948;3.946;2022-08-19T05:01:11;15.15;;;8.15;;
31210;SDS011;17836;50.948;3.946;2022-08-19T05:03:37;11.40;;;7.80;;
31210;SDS011;17836;50.948;3.946;2022-08-19T05:06:07;11.07;;;7.90;;
31210;SDS011;17836;50.948;3.946;2022-08-19T05:08:34;12.50;;;7.53;;
31210;SDS011;17836;50.948;3.946;2022-08-19T05:11:00;10.60;;;8.35;;
31210;SDS011;17836;50.948;3.946;2022-08-19T05:13:25;10.95;;;8.43;;
31210;SDS011;17836;50.948;3.946;2022-08-19T05:15:57;13.40;;;8.57;;
31210;SDS011;17836;50.948;3.946;2022-08-19T05:18:24;10.93;;;7.50;;
31210;SDS011;17836;50.948;3.946;2022-08-19T05:21:08;12.05;;;8.13;;
31210;SDS011;17836;50.948;3.946;2022-08-19T05:23:53;10.13;;;7.90;;
31210;SDS011;17836;50.948;3.946;2022-08-19T05:26:18;11.10;;;8.70;;
31210;SDS011;17836;50.948;3.946;2022-08-19T05:28:43;10.03;;;7.77;;
31210;SDS011;17836;50.948;3.946;2022-08-19T05:31:09;11.00;;;7.40;;
31210;SDS011;17836;50.948;3.946;2022-08-19T05:33:34;9.82;;;7.60;;
31210;SDS011;17836;50.948;3.946;2022-08-19T05:36:00;12.02;;;7.15;;
31210;SDS011;17836;50.948;3.946;2022-08-19T05:38:26;14.15;;;7.90;;
31210;SDS011;17836;50.948;3.946;2022-08-19T05:40:52;7.85;;;6.50;;
31210;SDS011;17836;50.948;3.946;2022-08-19T05:43:17;7.13;;;6.43;;
31210;SDS011;17836;50.948;3.946;2022-08-19T05:45:43;10.70;;;6.93;;
31210;SDS011;17836;50.948;3.946;2022-08-19T05:48:09;8.15;;;7.10;;
31210;SDS011;17836;50.948;3.946;2022-08-19T05:50:38;12.68;;;6.53;;
31210;SDS011;17836;50.948;3.946;2022-08-19T05:53:04;8.95;;;6.63;;
31210;SDS011;17836;50.948;3.946;2022-08-19T05:55:29;8.88;;;6.20;;
31210;SDS011;17836;50.948;3.946;2022-08-19T05:57:55;9.13;;;6.38;;
31210;SDS011;17836;50.948;3.946;2022-08-19T06:00:20;10.13;;;6.47;;
31210;SDS011;17836;50.948;3.946;2022-08-19T06:02:46;7.38;;;5.55;;
31210;SDS011;17836;50.948;3.946;2022-08-19T06:05:11;8.60;;;5.30;;
31210;SDS011;17836;50.948;3.946;2022-08-19T06:07:38;7.97;;;5.15;;
31210;SDS011;17836;50.948;3.946;2022-08-19T06:10:04;7.03;;;5.25;;
31210;SDS011;17836;50.948;3.946;2022-08-19T06:12:30;5.95;;;5.35;;
31210;SDS011;17836;50.948;3.946;2022-08-19T06:14:58;7.45;;;5.35;;
31210;SDS011;17836;50.948;3.946;2022-08-19T06:17:24;7.38;;;5.43;;
31210;SDS011;17836;50.948;3.946;2022-08-19T06:19:50;5.60;;;5.05;;
31210;SDS011;17836;50.948;3.946;2022-08-19T06:22:16;6.85;;;4.70;;
31210;SDS011;17836;50.948;3.946;2022-08-19T06:24:42;8.35;;;5.25;;
31210;SDS011;17836;50.948;3.946;2022-08-19T06:27:07;6.43;;;4.90;;
31210;SDS011;17836;50.948;3.946;2022-08-19T06:29:32;7.17;;;4.53;;
31210;SDS011;17836;50.948;3.946;2022-08-19T06:31:58;7.90;;;4.80;;
31210;SDS011;17836;50.948;3.946;2022-08-19T06:34:25;6.18;;;4.80;;
31210;SDS011;17836;50.948;3.946;2022-08-19T06:36:52;6.30;;;5.07;;
31210;SDS011;17836;50.948;3.946;2022-08-19T06:39:21;8.20;;;4.40;;
31210;SDS011;17836;50.948;3.946;2022-08-19T06:41:48;6.70;;;5.03;;
31210;SDS011;17836;50.948;3.946;2022-08-19T06:44:16;4.82;;;4.03;;
31210;SDS011;17836;50.948;3.946;2022-08-19T06:46:41;7.35;;;4.72;;
31210;SDS011;17836;50.948;3.946;2022-08-19T06:49:07;4.32;;;3.78;;
31210;SDS011;17836;50.948;3.946;2022-08-19T06:54:03;4.45;;;3.88;;
31210;SDS011;17836;50.948;3.946;2022-08-19T06:56:30;4.10;;;3.08;;
31210;SDS011;17836;50.948;3.946;2022-08-19T06:59:00;5.88;;;3.78;;
31210;SDS011;17836;50.948;3.946;2022-08-19T07:01:26;3.25;;;2.72;;
31210;SDS011;17836;50.948;3.946;2022-08-19T07:03:51;3.50;;;2.88;;
31210;SDS011;17836;50.948;3.946;2022-08-19T07:06:18;4.30;;;3.28;;
31210;SDS011;17836;50.948;3.946;2022-08-19T07:08:45;4.32;;;2.75;;
31210;SDS011;17836;50.948;3.946;2022-08-19T07:11:12;3.75;;;2.72;;
31210;SDS011;17836;50.948;3.946;2022-08-19T07:13:38;3.28;;;2.90;;
31210;SDS011;17836;50.948;3.946;2022-08-19T07:16:07;4.65;;;3.05;;
31210;SDS011;17836;50.948;3.946;2022-08-19T07:18:34;3.80;;;2.97;;
31210;SDS011;17836;50.948;3.946;2022-08-19T07:21:19;3.20;;;2.78;;
31210;SDS011;17836;50.948;3.946;2022-08-19T07:23:45;3.28;;;2.28;;
31210;SDS011;17836;50.948;3.946;2022-08-19T07:26:13;3.45;;;2.20;;
31210;SDS011;17836;50.948;3.946;2022-08-19T07:28:40;5.07;;;2.58;;
31210;SDS011;17836;50.948;3.946;2022-08-19T07:31:09;3.63;;;2.90;;
31210;SDS011;17836;50.948;3.946;2022-08-19T07:33:35;6.13;;;3.57;;
31210;SDS011;17836;50.948;3.946;2022-08-19T07:36:02;4.80;;;3.42;;
31210;SDS011;17836;50.948;3.946;2022-08-19T07:38:28;3.35;;;2.58;;
31210;SDS011;17836;50.948;3.946;2022-08-19T07:40:53;2.75;;;2.55;;
31210;SDS011;17836;50.948;3.946;2022-08-19T07:43:19;5.07;;;2.90;;
31210;SDS011;17836;50.948;3.946;2022-08-19T07:45:50;3.33;;;2.55;;
31210;SDS011;17836;50.948;3.946;2022-08-19T07:48:16;7.85;;;3.90;;
31210;SDS011;17836;50.948;3.946;2022-08-19T07:50:41;3.87;;;3.47;;
31210;SDS011;17836;50.948;3.946;2022-08-19T07:53:07;3.78;;;2.70;;
31210;SDS011;17836;50.948;3.946;2022-08-19T07:55:32;4.97;;;3.50;;
31210;SDS011;17836;50.948;3.946;2022-08-19T07:57:59;4.03;;;3.50;;
31210;SDS011;17836;50.948;3.946;2022-08-19T08:00:24;5.47;;;3.33;;
31210;SDS011;17836;50.948;3.946;2022-08-19T08:02:49;4.93;;;3.05;;
31210;SDS011;17836;50.948;3.946;2022-08-19T08:05:14;4.00;;;3.27;;
31210;SDS011;17836;50.948;3.946;2022-08-19T08:07:58;5.47;;;3.47;;
31210;SDS011;17836;50.948;3.946;2022-08-19T08:10:42;4.53;;;3.65;;
31210;SDS011;17836;50.948;3.946;2022-08-19T08:13:07;6.72;;;3.42;;
31210;SDS011;17836;50.948;3.946;2022-08-19T08:15:33;6.32;;;4.00;;
31210;SDS011;17836;50.948;3.946;2022-08-19T08:17:59;4.47;;;3.28;;
31210;SDS011;17836;50.948;3.946;2022-08-19T08:20:24;6.00;;;3.97;;
31210;SDS011;17836;50.948;3.946;2022-08-19T08:22:50;4.60;;;3.67;;
31210;SDS011;17836;50.948;3.946;2022-08-19T08:25:34;4.18;;;3.20;;
31210;SDS011;17836;50.948;3.946;2022-08-19T08:28:00;5.32;;;4.20;;
31210;SDS011;17836;50.948;3.946;2022-08-19T08:30:26;4.07;;;3.08;;
31210;SDS011;17836;50.948;3.946;2022-08-19T08:32:52;6.40;;;3.83;;
31210;SDS011;17836;50.948;3.946;2022-08-19T08:35:20;3.93;;;3.03;;
31210;SDS011;17836;50.948;3.946;2022-08-19T08:37:47;3.97;;;3.45;;
31210;SDS011;17836;50.948;3.946;2022-08-19T08:40:23;4.32;;;3.28;;
31210;SDS011;17836;50.948;3.946;2022-08-19T08:42:57;5.15;;;3.08;;
31210;SDS011;17836;50.948;3.946;2022-08-19T08:45:27;4.43;;;3.45;;
31210;SDS011;17836;50.948;3.946;2022-08-19T08:47:54;5.20;;;3.58;;
31210;SDS011;17836;50.948;3.946;2022-08-19T08:50:22;3.17;;;2.67;;
31210;SDS011;17836;50.948;3.946;2022-08-19T08:52:50;5.72;;;3.00;;
31210;SDS011;17836;50.948;3.946;2022-08-19T08:55:18;4.53;;;2.70;;
31210;SDS011;17836;50.948;3.946;2022-08-19T09:00:23;3.53;;;3.10;;
31210;SDS011;17836;50.948;3.946;2022-08-19T09:02:50;4.82;;;2.80;;
31210;SDS011;17836;50.948;3.946;2022-08-19T09:05:15;4.07;;;2.40;;
31210;SDS011;17836;50.948;3.946;2022-08-19T09:07:44;3.50;;;3.10;;
31210;SDS011;17836;50.948;3.946;2022-08-19T09:15:20;3.13;;;2.65;;
31210;SDS011;17836;50.948;3.946;2022-08-19T09:17:46;3.45;;;2.88;;
31210;SDS011;17836;50.948;3.946;2022-08-19T09:20:20;4.63;;;2.08;;
31210;SDS011;17836;50.948;3.946;2022-08-19T09:22:45;3.95;;;2.65;;
31210;SDS011;17836;50.948;3.946;2022-08-19T09:25:13;3.65;;;2.55;;
31210;SDS011;17836;50.948;3.946;2022-08-19T09:27:39;3.75;;;2.47;;
31210;SDS011;17836;50.948;3.946;2022-08-19T09:30:05;3.75;;;2.40;;
31210;SDS011;17836;50.948;3.946;2022-08-19T09:32:32;3.08;;;2.78;;
31210;SDS011;17836;50.948;3.946;2022-08-19T09:34:57;5.33;;;2.83;;
31210;SDS011;17836;50.948;3.946;2022-08-19T09:37:23;4.03;;;2.50;;
31210;SDS011;17836;50.948;3.946;2022-08-19T09:39:49;4.30;;;2.90;;
31210;SDS011;17836;50.948;3.946;2022-08-19T09:42:14;6.82;;;2.95;;
31210;SDS011;17836;50.948;3.946;2022-08-19T09:44:40;2.53;;;2.33;;
31210;SDS011;17836;50.948;3.946;2022-08-19T09:47:06;2.65;;;2.28;;
31210;SDS011;17836;50.948;3.946;2022-08-19T09:49:32;3.15;;;2.65;;
31210;SDS011;17836;50.948;3.946;2022-08-19T09:51:57;4.40;;;2.75;;
31210;SDS011;17836;50.948;3.946;2022-08-19T09:54:23;3.47;;;2.58;;
31210;SDS011;17836;50.948;3.946;2022-08-19T09:56:48;3.33;;;2.53;;
31210;SDS011;17836;50.948;3.946;2022-08-19T09:59:14;2.50;;;2.30;;
31210;SDS011;17836;50.948;3.946;2022-08-19T10:01:39;2.80;;;2.40;;
31210;SDS011;17836;50.948;3.946;2022-08-19T10:04:04;3.00;;;2.40;;
31210;SDS011;17836;50.948;3.946;2022-08-19T10:06:34;2.92;;;2.42;;
31210;SDS011;17836;50.948;3.946;2022-08-19T10:08:59;4.57;;;2.35;;
31210;SDS011;17836;50.948;3.946;2022-08-19T10:11:25;4.60;;;3.10;;
31210;SDS011;17836;50.948;3.946;2022-08-19T10:13:51;2.70;;;2.30;;
31210;SDS011;17836;50.948;3.946;2022-08-19T10:16:18;2.57;;;2.37;;
31210;SDS011;17836;50.948;3.946;2022-08-19T10:18:44;5.95;;;2.50;;
31210;SDS011;17836;50.948;3.946;2022-08-19T10:21:14;2.67;;;2.35;;
31210;SDS011;17836;50.948;3.946;2022-08-19T10:23:40;4.82;;;2.00;;
31210;SDS011;17836;50.948;3.946;2022-08-19T10:26:09;3.75;;;2.50;;
31210;SDS011;17836;50.948;3.946;2022-08-19T10:28:36;4.50;;;2.55;;
31210;SDS011;17836;50.948;3.946;2022-08-19T10:31:09;3.50;;;2.70;;
31210;SDS011;17836;50.948;3.946;2022-08-19T10:33:37;2.40;;;2.20;;
31210;SDS011;17836;50.948;3.946;2022-08-19T10:36:05;2.00;;;1.80;;
31210;SDS011;17836;50.948;3.946;2022-08-19T10:38:31;3.70;;;2.05;;
31210;SDS011;17836;50.948;3.946;2022-08-19T10:40:57;2.17;;;1.90;;
31210;SDS011;17836;50.948;3.946;2022-08-19T10:43:23;2.88;;;1.70;;
31210;SDS011;17836;50.948;3.946;2022-08-19T10:45:53;2.83;;;1.80;;
31210;SDS011;17836;50.948;3.946;2022-08-19T10:48:23;2.03;;;1.55;;
31210;SDS011;17836;50.948;3.946;2022-08-19T10:50:49;4.22;;;1.88;;
31210;SDS011;17836;50.948;3.946;2022-08-19T10:53:32;2.00;;;1.30;;
31210;SDS011;17836;50.948;3.946;2022-08-19T10:55:58;2.00;;;1.67;;
31210;SDS011;17836;50.948;3.946;2022-08-19T10:58:42;2.08;;;1.45;;
31210;SDS011;17836;50.948;3.946;2022-08-19T11:01:07;1.67;;;1.33;;
31210;SDS011;17836;50.948;3.946;2022-08-19T11:03:32;1.80;;;1.30;;
31210;SDS011;17836;50.948;3.946;2022-08-19T11:06:05;2.47;;;1.55;;
31210;SDS011;17836;50.948;3.946;2022-08-19T11:08:31;2.92;;;1.60;;
31210;SDS011;17836;50.948;3.946;2022-08-19T11:10:58;3.50;;;1.77;;
31210;SDS011;17836;50.948;3.946;2022-08-19T11:13:26;2.00;;;1.23;;
31210;SDS011;17836;50.948;3.946;2022-08-19T11:15:59;1.35;;;1.00;;
31210;SDS011;17836;50.948;3.946;2022-08-19T11:18:25;1.55;;;1.45;;
31210;SDS011;17836;50.948;3.946;2022-08-19T11:20:51;1.55;;;1.10;;
31210;SDS011;17836;50.948;3.946;2022-08-19T11:23:16;2.08;;;1.02;;
31210;SDS011;17836;50.948;3.946;2022-08-19T11:25:41;1.90;;;0.67;;
31210;SDS011;17836;50.948;3.946;2022-08-19T11:28:07;1.63;;;1.20;;
31210;SDS011;17836;50.948;3.946;2022-08-19T11:30:32;1.20;;;1.10;;
31210;SDS011;17836;50.948;3.946;2022-08-19T11:32:58;1.67;;;1.10;;
31210;SDS011;17836;50.948;3.946;2022-08-19T11:35:25;2.75;;;1.70;;
31210;SDS011;17836;50.948;3.946;2022-08-19T11:37:51;2.70;;;2.40;;
31210;SDS011;17836;50.948;3.946;2022-08-19T11:40:18;2.60;;;2.22;;
31210;SDS011;17836;50.948;3.946;2022-08-19T11:42:43;2.70;;;2.30;;
31210;SDS011;17836;50.948;3.946;2022-08-19T11:45:35;3.78;;;2.50;;
31210;SDS011;17836;50.948;3.946;2022-08-19T11:48:00;2.20;;;2.00;;
31210;SDS011;17836;50.948;3.946;2022-08-19T11:50:26;2.50;;;2.28;;
31210;SDS011;17836;50.948;3.946;2022-08-19T11:52:55;2.40;;;2.20;;
31210;SDS011;17836;50.948;3.946;2022-08-19T11:55:21;3.60;;;2.47;;
31210;SDS011;17836;50.948;3.946;2022-08-19T11:57:47;3.25;;;2.75;;
31210;SDS011;17836;50.948;3.946;2022-08-19T12:00:12;2.92;;;2.53;;
31210;SDS011;17836;50.948;3.946;2022-08-19T12:02:38;4.43;;;2.70;;
31210;SDS011;17836;50.948;3.946;2022-08-19T12:05:04;2.95;;;2.70;;
31210;SDS011;17836;50.948;3.946;2022-08-19T12:07:30;2.63;;;2.35;;
31210;SDS011;17836;50.948;3.946;2022-08-19T12:09:58;2.40;;;2.03;;
31210;SDS011;17836;50.948;3.946;2022-08-19T12:12:23;2.33;;;1.88;;
31210;SDS011;17836;50.948;3.946;2022-08-19T12:14:49;2.78;;;2.05;;
31210;SDS011;17836;50.948;3.946;2022-08-19T12:17:21;1.83;;;1.73;;
31210;SDS011;17836;50.948;3.946;2022-08-19T12:19:46;2.65;;;2.05;;
31210;SDS011;17836;50.948;3.946;2022-08-19T12:22:12;3.57;;;1.90;;
31210;SDS011;17836;50.948;3.946;2022-08-19T12:24:37;2.17;;;1.93;;
31210;SDS011;17836;50.948;3.946;2022-08-19T12:27:02;1.87;;;1.67;;
31210;SDS011;17836;50.948;3.946;2022-08-19T12:29:27;2.30;;;1.60;;
31210;SDS011;17836;50.948;3.946;2022-08-19T12:31:53;1.30;;;1.10;;
31210;SDS011;17836;50.948;3.946;2022-08-19T12:34:19;2.05;;;1.23;;
31210;SDS011;17836;50.948;3.946;2022-08-19T12:36:45;2.00;;;1.35;;
31210;SDS011;17836;50.948;3.946;2022-08-19T12:39:10;1.30;;;1.20;;
31210;SDS011;17836;50.948;3.946;2022-08-19T12:41:36;1.38;;;1.27;;
31210;SDS011;17836;50.948;3.946;2022-08-19T12:44:02;1.38;;;1.27;;
31210;SDS011;17836;50.948;3.946;2022-08-19T12:46:28;1.58;;;1.40;;
31210;SDS011;17836;50.948;3.946;2022-08-19T12:48:53;3.47;;;1.47;;
31210;SDS011;17836;50.948;3.946;2022-08-19T12:51:19;1.52;;;1.23;;
31210;SDS011;17836;50.948;3.946;2022-08-19T12:53:45;0.77;;;0.57;;
31210;SDS011;17836;50.948;3.946;2022-08-19T12:56:11;1.30;;;1.02;;
31210;SDS011;17836;50.948;3.946;2022-08-19T12:58:36;1.48;;;1.10;;
31210;SDS011;17836;50.948;3.946;2022-08-19T13:01:11;2.63;;;1.40;;
31210;SDS011;17836;50.948;3.946;2022-08-19T13:03:36;1.10;;;1.00;;
31210;SDS011;17836;50.948;3.946;2022-08-19T13:06:02;0.93;;;0.90;;
31210;SDS011;17836;50.948;3.946;2022-08-19T13:08:28;1.10;;;1.00;;
31210;SDS011;17836;50.948;3.946;2022-08-19T13:10:53;0.93;;;0.90;;
31210;SDS011;17836;50.948;3.946;2022-08-19T13:13:18;3.03;;;1.00;;
31210;SDS011;17836;50.948;3.946;2022-08-19T13:15:44;0.88;;;0.75;;
31210;SDS011;17836;50.948;3.946;2022-08-19T13:18:10;0.98;;;0.90;;
31210;SDS011;17836;50.948;3.946;2022-08-19T13:20:39;0.68;;;0.68;;
31210;SDS011;17836;50.948;3.946;2022-08-19T13:23:07;0.60;;;0.50;;
31210;SDS011;17836;50.948;3.946;2022-08-19T13:25:33;2.17;;;0.52;;
31210;SDS011;17836;50.948;3.946;2022-08-19T13:27:58;0.93;;;0.60;;
31210;SDS011;17836;50.948;3.946;2022-08-19T13:30:24;0.85;;;0.73;;
31210;SDS011;17836;50.948;3.946;2022-08-19T13:33:08;1.00;;;0.90;;
31210;SDS011;17836;50.948;3.946;2022-08-19T13:35:54;0.80;;;0.70;;
31210;SDS011;17836;50.948;3.946;2022-08-19T13:38:22;3.05;;;0.90;;
31210;SDS011;17836;50.948;3.946;2022-08-19T13:40:48;1.85;;;1.02;;
31210;SDS011;17836;50.948;3.946;2022-08-19T13:43:15;1.23;;;1.13;;
31210;SDS011;17836;50.948;3.946;2022-08-19T13:45:41;1.50;;;1.40;;
31210;SDS011;17836;50.948;3.946;2022-08-19T13:48:07;1.73;;;1.50;;
31210;SDS011;17836;50.948;3.946;2022-08-19T13:50:33;2.10;;;1.90;;
31210;SDS011;17836;50.948;3.946;2022-08-19T13:52:59;1.30;;;1.20;;
31210;SDS011;17836;50.948;3.946;2022-08-19T13:55:25;1.42;;;1.33;;
31210;SDS011;17836;50.948;3.946;2022-08-19T13:57:52;1.75;;;1.65;;
31210;SDS011;17836;50.948;3.946;2022-08-19T14:00:18;1.52;;;1.42;;
31210;SDS011;17836;50.948;3.946;2022-08-19T14:02:44;1.63;;;1.52;;
31210;SDS011;17836;50.948;3.946;2022-08-19T14:05:11;1.60;;;1.50;;
31210;SDS011;17836;50.948;3.946;2022-08-19T14:07:38;2.05;;;1.60;;
31210;SDS011;17836;50.948;3.946;2022-08-19T14:10:04;3.17;;;1.00;;
31210;SDS011;17836;50.948;3.946;2022-08-19T14:12:30;1.40;;;1.08;;
31210;SDS011;17836;50.948;3.946;2022-08-19T14:14:57;1.10;;;0.90;;
31210;SDS011;17836;50.948;3.946;2022-08-19T14:17:22;1.60;;;0.93;;
31210;SDS011;17836;50.948;3.946;2022-08-19T14:19:47;1.27;;;0.90;;
31210;SDS011;17836;50.948;3.946;2022-08-19T14:22:13;3.28;;;0.90;;
31210;SDS011;17836;50.948;3.946;2022-08-19T14:24:39;1.13;;;0.90;;
31210;SDS011;17836;50.948;3.946;2022-08-19T14:27:05;1.25;;;0.90;;
31210;SDS011;17836;50.948;3.946;2022-08-19T14:29:31;1.85;;;1.00;;
31210;SDS011;17836;50.948;3.946;2022-08-19T14:31:56;2.15;;;1.20;;
31210;SDS011;17836;50.948;3.946;2022-08-19T14:34:24;1.48;;;1.35;;
31210;SDS011;17836;50.948;3.946;2022-08-19T14:36:50;2.33;;;1.08;;
31210;SDS011;17836;50.948;3.946;2022-08-19T14:39:15;1.30;;;1.20;;
31210;SDS011;17836;50.948;3.946;2022-08-19T14:41:40;1.33;;;1.00;;
31210;SDS011;17836;50.948;3.946;2022-08-19T14:44:07;1.10;;;1.00;;
31210;SDS011;17836;50.948;3.946;2022-08-19T14:46:32;1.33;;;0.95;;
31210;SDS011;17836;50.948;3.946;2022-08-19T14:48:57;1.80;;;1.27;;